createdAt,value
2022-09-26T00:00:34.031Z,11.60
2022-09-26T00:01:34.127Z,11.59
2022-09-26T00:02:34.131Z,11.62
2022-09-26T00:03:34.023Z,11.57
2022-09-26T00:04:33.987Z,11.54
2022-09-26T00:05:34.142Z,11.50
2022-09-26T00:06:33.953Z,11.50
2022-09-26T00:07:33.964Z,11.50
2022-09-26T00:08:33.949Z,11.50
2022-09-26T00:09:33.920Z,11.50
2022-09-26T00:10:33.919Z,11.51
2022-09-26T00:11:33.919Z,11.50
2022-09-26T00:12:33.874Z,11.52
2022-09-26T00:13:33.914Z,11.55
2022-09-26T00:14:33.887Z,11.57
2022-09-26T00:15:33.858Z,11.57
2022-09-26T00:16:33.885Z,11.55
2022-09-26T00:17:33.812Z,11.57
2022-09-26T00:18:33.820Z,11.59
2022-09-26T00:19:33.789Z,11.60
2022-09-26T00:20:33.794Z,11.60
2022-09-26T00:21:33.763Z,11.60
2022-09-26T00:22:33.736Z,11.62
2022-09-26T00:23:33.734Z,11.63
2022-09-26T00:24:33.720Z,11.65
2022-09-26T00:25:33.727Z,11.66
2022-09-26T00:26:33.711Z,11.68
2022-09-26T00:27:33.680Z,11.70
2022-09-26T00:28:33.653Z,11.69
2022-09-26T00:29:33.653Z,11.70
2022-09-26T00:30:33.696Z,11.72
2022-09-26T00:31:33.625Z,11.70
2022-09-26T00:32:33.678Z,11.70
2022-09-26T00:33:33.617Z,11.72
2022-09-26T00:34:33.599Z,11.70
2022-09-26T00:35:33.570Z,11.70
2022-09-26T00:36:38.101Z,11.68
2022-09-26T00:37:33.561Z,11.68
2022-09-26T00:38:33.552Z,11.68
2022-09-26T00:39:33.524Z,11.68
2022-09-26T00:40:33.534Z,11.69
2022-09-26T00:41:33.527Z,11.69
2022-09-26T00:42:33.466Z,11.69
2022-09-26T00:43:33.464Z,11.69
2022-09-26T00:44:33.450Z,11.69
2022-09-26T00:45:33.486Z,11.69
2022-09-26T00:46:33.500Z,11.69
2022-09-26T00:47:33.424Z,11.70
2022-09-26T00:48:33.390Z,11.70
2022-09-26T00:49:33.390Z,11.72
2022-09-26T00:50:33.364Z,11.70
2022-09-26T00:51:33.385Z,11.72
2022-09-26T00:52:33.372Z,11.69
2022-09-26T00:53:33.329Z,11.70
2022-09-26T00:54:33.313Z,11.69
2022-09-26T00:55:33.302Z,11.70
2022-09-26T00:56:33.285Z,11.69
2022-09-26T00:57:33.299Z,11.69
2022-09-26T00:58:33.258Z,11.69
2022-09-26T00:59:33.284Z,11.68
2022-09-26T01:00:34.209Z,11.68
2022-09-26T01:01:33.411Z,11.65
2022-09-26T01:02:33.337Z,11.65
2022-09-26T01:03:33.221Z,11.62
2022-09-26T01:04:33.184Z,11.62
2022-09-26T01:05:33.164Z,11.59
2022-09-26T01:06:33.158Z,11.57
2022-09-26T01:07:33.171Z,11.59
2022-09-26T01:08:33.136Z,11.59
2022-09-26T01:09:33.116Z,11.60
2022-09-26T01:10:33.129Z,11.59
2022-09-26T01:11:33.091Z,11.60
2022-09-26T01:12:33.067Z,11.62
2022-09-26T01:13:33.055Z,11.63
2022-09-26T01:14:33.070Z,11.63
2022-09-26T01:15:33.114Z,11.65
2022-09-26T01:16:33.081Z,11.65
2022-09-26T01:17:33.016Z,11.63
2022-09-26T01:18:32.992Z,11.65
2022-09-26T01:19:32.986Z,11.65
2022-09-26T01:20:33.006Z,11.65
2022-09-26T01:21:33.037Z,11.65
2022-09-26T01:22:32.936Z,11.62
2022-09-26T01:23:32.924Z,11.59
2022-09-26T01:24:32.908Z,11.59
2022-09-26T01:25:32.926Z,11.59
2022-09-26T01:26:32.887Z,11.57
2022-09-26T01:27:32.885Z,11.57
2022-09-26T01:28:32.865Z,11.57
2022-09-26T01:29:32.849Z,11.57
2022-09-26T01:30:32.921Z,11.55
2022-09-26T01:31:32.824Z,11.57
2022-09-26T01:32:32.826Z,11.57
2022-09-26T01:33:32.797Z,11.59
2022-09-26T01:34:32.785Z,11.59
2022-09-26T01:35:32.818Z,11.60
2022-09-26T01:36:32.754Z,11.62
2022-09-26T01:37:32.737Z,11.62
2022-09-26T01:38:32.805Z,11.63
2022-09-26T01:39:32.724Z,11.62
2022-09-26T01:40:32.770Z,11.63
2022-09-26T01:41:32.691Z,11.63
2022-09-26T01:42:32.675Z,11.63
2022-09-26T01:43:32.688Z,11.62
2022-09-26T01:44:32.665Z,11.63
2022-09-26T01:45:32.701Z,11.63
2022-09-26T01:46:32.636Z,11.63
2022-09-26T01:47:32.606Z,11.63
2022-09-26T01:48:32.625Z,11.65
2022-09-26T01:49:32.620Z,11.63
2022-09-26T01:50:32.562Z,11.63
2022-09-26T01:51:32.587Z,11.63
2022-09-26T01:52:32.539Z,11.63
2022-09-26T01:53:32.525Z,11.60
2022-09-26T01:54:32.514Z,11.59
2022-09-26T01:55:32.528Z,11.59
2022-09-26T01:56:32.515Z,11.55
2022-09-26T01:57:32.478Z,11.55
2022-09-26T01:58:32.443Z,11.55
2022-09-26T01:59:32.465Z,11.52
2022-09-26T02:04:14.284Z,11.57
2022-09-26T02:05:15.259Z,11.57
2022-09-26T02:06:15.238Z,11.57
2022-09-26T02:07:15.228Z,11.57
2022-09-26T02:08:15.215Z,11.57
2022-09-26T02:09:15.286Z,11.59
2022-09-26T02:10:15.192Z,11.55
2022-09-26T02:11:15.179Z,11.52
2022-09-26T02:12:15.194Z,11.51
2022-09-26T02:13:15.146Z,11.51
2022-09-26T02:14:15.145Z,11.51
2022-09-26T02:15:15.118Z,11.51
2022-09-26T02:16:15.184Z,11.50
2022-09-26T02:17:15.126Z,11.52
2022-09-26T02:18:15.083Z,11.51
2022-09-26T02:19:15.206Z,11.51
2022-09-26T02:20:15.064Z,11.52
2022-09-26T02:21:15.055Z,11.52
2022-09-26T02:22:15.051Z,11.54
2022-09-26T02:23:15.033Z,11.54
2022-09-26T02:24:14.998Z,11.55
2022-09-26T02:25:14.979Z,11.57
2022-09-26T02:26:14.975Z,11.57
2022-09-26T02:27:14.980Z,11.57
2022-09-26T02:28:14.976Z,11.55
2022-09-26T02:29:15.154Z,11.54
2022-09-26T02:30:14.928Z,11.55
2022-09-26T02:31:14.903Z,11.57
2022-09-26T02:32:15.000Z,11.57
2022-09-26T02:33:14.895Z,11.57
2022-09-26T02:34:14.870Z,11.55
2022-09-26T02:35:14.857Z,11.55
2022-09-26T02:36:14.842Z,11.54
2022-09-26T02:37:14.879Z,11.54
2022-09-26T02:38:14.822Z,11.54
2022-09-26T02:39:15.011Z,11.54
2022-09-26T02:40:14.845Z,11.51
2022-09-26T02:41:14.778Z,11.52
2022-09-26T02:42:14.753Z,11.50
2022-09-26T02:43:14.756Z,11.50
2022-09-26T02:44:14.785Z,11.48
2022-09-26T02:45:14.738Z,11.47
2022-09-26T02:46:14.834Z,11.47
2022-09-26T02:47:14.705Z,11.45
2022-09-26T02:48:14.685Z,11.41
2022-09-26T02:49:14.874Z,11.37
2022-09-26T02:50:14.661Z,11.37
2022-09-26T02:51:14.643Z,11.37
2022-09-26T02:52:14.632Z,11.41
2022-09-26T02:53:14.652Z,11.43
2022-09-26T02:54:14.598Z,11.41
2022-09-26T02:55:14.616Z,11.40
2022-09-26T02:56:14.618Z,11.41
2022-09-26T02:57:14.558Z,11.41
2022-09-26T02:58:14.550Z,11.43
2022-09-26T02:59:14.629Z,11.43
2022-09-26T03:00:14.523Z,11.43
2022-09-26T03:01:14.586Z,11.41
2022-09-26T03:02:14.497Z,11.43
2022-09-26T03:03:14.517Z,11.43
2022-09-26T03:04:14.575Z,11.41
2022-09-26T03:05:14.454Z,11.41
2022-09-26T03:06:14.467Z,11.43
2022-09-26T03:07:14.424Z,11.44
2022-09-26T03:08:14.414Z,11.44
2022-09-26T03:09:14.524Z,11.47
2022-09-26T03:10:14.383Z,11.48
2022-09-26T03:11:14.400Z,11.48
2022-09-26T03:12:14.355Z,11.48
2022-09-26T03:13:14.345Z,11.50
2022-09-26T03:14:14.342Z,11.50
2022-09-26T03:15:14.307Z,11.48
2022-09-26T03:16:14.360Z,11.47
2022-09-26T03:17:14.296Z,11.44
2022-09-26T03:18:14.275Z,11.45
2022-09-26T03:19:14.531Z,11.45
2022-09-26T03:20:14.277Z,11.45
2022-09-26T03:21:14.272Z,11.44
2022-09-26T03:22:14.226Z,11.44
2022-09-26T03:23:14.219Z,11.45
2022-09-26T03:24:14.201Z,11.45
2022-09-26T03:25:14.185Z,11.45
2022-09-26T03:26:14.203Z,11.47
2022-09-26T03:27:14.147Z,11.45
2022-09-26T03:28:14.150Z,11.45
2022-09-26T03:29:14.309Z,11.45
2022-09-26T03:30:14.113Z,11.47
2022-09-26T03:31:14.175Z,11.47
2022-09-26T03:32:14.190Z,11.48
2022-09-26T03:33:14.078Z,11.47
2022-09-26T03:34:14.064Z,11.45
2022-09-26T03:35:14.067Z,11.48
2022-09-26T03:36:14.063Z,11.48
2022-09-26T03:37:14.022Z,11.48
2022-09-26T03:38:14.603Z,11.50
2022-09-26T03:39:14.206Z,11.50
2022-09-26T03:40:14.033Z,11.50
2022-09-26T03:41:13.965Z,11.51
2022-09-26T03:42:13.960Z,11.48
2022-09-26T03:43:13.975Z,11.44
2022-09-26T03:44:13.952Z,11.41
2022-09-26T03:45:13.936Z,11.40
2022-09-26T03:46:13.929Z,11.33
2022-09-26T03:47:13.885Z,11.27
2022-09-26T03:48:13.887Z,11.19
2022-09-26T03:49:14.004Z,11.18
2022-09-26T03:50:13.860Z,11.14
2022-09-26T03:51:13.862Z,11.15
2022-09-26T03:52:13.824Z,11.17
2022-09-26T03:53:13.809Z,11.17
2022-09-26T03:54:13.838Z,11.15
2022-09-26T03:55:13.794Z,11.12
2022-09-26T03:56:13.799Z,11.14
2022-09-26T03:57:13.770Z,11.14
2022-09-26T03:58:13.750Z,11.17
2022-09-26T03:59:13.859Z,11.19
2022-09-26T04:00:13.744Z,11.23
2022-09-26T04:01:13.810Z,11.25
2022-09-26T04:02:13.769Z,11.29
2022-09-26T04:03:13.680Z,11.30
2022-09-26T04:04:13.670Z,11.30
2022-09-26T04:05:13.679Z,11.32
2022-09-26T04:06:13.634Z,11.33
2022-09-26T04:07:13.620Z,11.36
2022-09-26T04:08:13.609Z,11.36
2022-09-26T04:09:17.045Z,11.37
2022-09-26T04:10:13.613Z,11.40
2022-09-26T04:11:13.568Z,11.41
2022-09-26T04:12:13.553Z,11.43
2022-09-26T04:13:33.745Z,11.43
2022-09-26T04:14:13.535Z,11.41
2022-09-26T04:15:13.543Z,11.43
2022-09-26T04:16:13.558Z,11.41
2022-09-26T04:17:13.527Z,11.41
2022-09-26T04:18:13.478Z,11.41
2022-09-26T04:19:13.590Z,11.41
2022-09-26T04:20:13.475Z,11.41
2022-09-26T04:21:13.433Z,11.40
2022-09-26T04:22:13.427Z,11.41
2022-09-26T04:23:13.403Z,11.37
2022-09-26T04:24:13.393Z,11.37
2022-09-26T04:25:13.404Z,11.37
2022-09-26T04:26:14.864Z,11.37
2022-09-26T04:27:13.354Z,11.40
2022-09-26T04:28:13.353Z,11.41
2022-09-26T04:29:13.350Z,11.41
2022-09-26T04:30:13.318Z,11.41
2022-09-26T04:31:13.369Z,11.41
2022-09-26T04:32:13.291Z,11.43
2022-09-26T04:33:13.271Z,11.43
2022-09-26T04:34:13.287Z,11.44
2022-09-26T04:35:13.255Z,11.44
2022-09-26T04:36:13.237Z,11.44
2022-09-26T04:37:13.225Z,11.45
2022-09-26T04:38:13.240Z,11.45
2022-09-26T04:39:13.373Z,11.45
2022-09-26T04:40:13.229Z,11.47
2022-09-26T04:41:13.192Z,11.47
2022-09-26T04:42:13.146Z,11.45
2022-09-26T04:43:13.144Z,11.44
2022-09-26T04:44:13.158Z,11.41
2022-09-26T04:45:13.109Z,11.37
2022-09-26T04:46:15.885Z,11.37
2022-09-26T04:47:13.092Z,11.32
2022-09-26T04:48:13.084Z,11.30
2022-09-26T04:49:13.091Z,11.29
2022-09-26T04:50:13.044Z,11.27
2022-09-26T04:51:13.030Z,11.26
2022-09-26T04:52:13.020Z,11.22
2022-09-26T04:53:13.004Z,11.18
2022-09-26T04:54:13.019Z,11.15
2022-09-26T04:55:12.983Z,11.15
2022-09-26T04:56:12.962Z,11.15
2022-09-26T04:57:17.322Z,11.12
2022-09-26T04:58:12.972Z,11.15
2022-09-26T04:59:13.020Z,11.15
2022-09-26T05:00:12.971Z,11.17
2022-09-26T05:01:12.982Z,11.18
2022-09-26T05:02:13.049Z,11.19
2022-09-26T05:03:12.874Z,11.22
2022-09-26T05:04:12.865Z,11.23
2022-09-26T05:05:12.839Z,11.25
2022-09-26T05:06:12.859Z,11.29
2022-09-26T05:07:12.822Z,11.30
2022-09-26T05:08:12.802Z,11.30
2022-09-26T05:09:12.790Z,11.32
2022-09-26T05:10:12.775Z,11.32
2022-09-26T05:11:12.789Z,11.32
2022-09-26T05:12:12.775Z,11.32
2022-09-26T05:13:12.748Z,11.30
2022-09-26T05:14:12.728Z,11.32
2022-09-26T05:15:12.720Z,11.30
2022-09-26T05:16:12.733Z,11.30
2022-09-26T05:17:12.715Z,11.32
2022-09-26T05:18:12.668Z,11.32
2022-09-26T05:19:12.659Z,11.32
2022-09-26T05:20:12.644Z,11.33
2022-09-26T05:21:12.658Z,11.32
2022-09-26T05:22:12.647Z,11.30
2022-09-26T05:23:12.632Z,11.27
2022-09-26T05:24:12.613Z,11.27
2022-09-26T05:25:12.587Z,11.26
2022-09-26T05:26:12.562Z,11.25
2022-09-26T05:27:12.543Z,11.26
2022-09-26T05:28:12.540Z,11.25
2022-09-26T05:29:12.877Z,11.26
2022-09-26T05:30:12.510Z,11.27
2022-09-26T05:31:12.557Z,11.27
2022-09-26T05:32:12.507Z,11.30
2022-09-26T05:33:12.510Z,11.30
2022-09-26T05:34:18.367Z,11.32
2022-09-26T05:35:12.454Z,11.32
2022-09-26T05:36:12.453Z,11.33
2022-09-26T05:37:12.424Z,11.30
2022-09-26T05:38:12.443Z,11.29
2022-09-26T05:39:12.450Z,11.26
2022-09-26T05:40:12.432Z,11.25
2022-09-26T05:41:12.364Z,11.26
2022-09-26T05:42:12.362Z,11.26
2022-09-26T05:43:12.358Z,11.27
2022-09-26T05:44:12.315Z,11.26
2022-09-26T05:45:12.341Z,11.27
2022-09-26T05:46:12.345Z,11.23
2022-09-26T05:47:12.366Z,11.23
2022-09-26T05:48:12.279Z,11.26
2022-09-26T05:49:12.336Z,11.26
2022-09-26T05:50:12.272Z,11.25
2022-09-26T05:51:12.241Z,11.25
2022-09-26T05:52:12.234Z,11.27
2022-09-26T05:53:12.210Z,11.27
2022-09-26T05:54:12.182Z,11.26
2022-09-26T05:55:12.172Z,11.27
2022-09-26T05:56:17.649Z,11.25
2022-09-26T05:57:12.175Z,11.19
2022-09-26T05:58:12.130Z,11.15
2022-09-26T05:59:12.164Z,11.14
2022-09-26T06:00:12.106Z,11.14
2022-09-26T06:01:12.276Z,11.14
2022-09-26T06:02:13.508Z,11.12
2022-09-26T06:03:12.086Z,11.12
2022-09-26T06:04:12.059Z,11.10
2022-09-26T06:05:12.042Z,11.07
2022-09-26T06:06:12.055Z,11.02
2022-09-26T06:07:12.043Z,10.94
2022-09-26T06:08:12.017Z,10.94
2022-09-26T06:09:12.011Z,10.93
2022-09-26T06:10:11.975Z,10.92
2022-09-26T06:11:11.962Z,10.90
2022-09-26T06:12:11.962Z,10.87
2022-09-26T06:13:11.942Z,10.89
2022-09-26T06:14:11.925Z,10.86
2022-09-26T06:15:11.906Z,10.84
2022-09-26T06:16:11.912Z,10.89
2022-09-26T06:17:11.913Z,10.89
2022-09-26T06:18:11.871Z,10.90
2022-09-26T06:19:11.887Z,10.93
2022-09-26T06:20:11.837Z,10.96
2022-09-26T06:21:11.831Z,10.99
2022-09-26T06:22:11.836Z,11.02
2022-09-26T06:23:11.810Z,11.04
2022-09-26T06:24:11.817Z,11.04
2022-09-26T06:25:11.776Z,11.05
2022-09-26T06:26:11.755Z,11.07
2022-09-26T06:27:11.767Z,11.10
2022-09-26T06:28:11.761Z,11.10
2022-09-26T06:29:11.776Z,11.12
2022-09-26T06:30:11.709Z,11.15
2022-09-26T06:31:11.755Z,11.17
2022-09-26T06:32:11.721Z,11.18
2022-09-26T06:33:11.704Z,11.19
2022-09-26T06:34:11.652Z,11.22
2022-09-26T06:35:11.656Z,11.25
2022-09-26T06:36:11.650Z,11.23
2022-09-26T06:37:11.611Z,11.26
2022-09-26T06:38:11.638Z,11.25
2022-09-26T06:39:11.709Z,11.27
2022-09-26T06:40:11.697Z,11.27
2022-09-26T06:41:11.562Z,11.26
2022-09-26T06:42:11.571Z,11.25
2022-09-26T06:43:11.564Z,11.26
2022-09-26T06:44:11.533Z,11.26
2022-09-26T06:45:11.538Z,11.26
2022-09-26T06:46:11.486Z,11.27
2022-09-26T06:47:11.557Z,11.29
2022-09-26T06:48:11.462Z,11.27
2022-09-26T06:49:11.465Z,11.30
2022-09-26T06:50:11.467Z,11.30
2022-09-26T06:51:11.429Z,11.33
2022-09-26T06:52:11.443Z,11.33
2022-09-26T06:53:11.408Z,11.33
2022-09-26T06:54:11.412Z,11.36
2022-09-26T06:55:11.376Z,11.40
2022-09-26T06:56:11.359Z,11.37
2022-09-26T06:57:14.913Z,11.40
2022-09-26T06:58:11.332Z,11.41
2022-09-26T06:59:11.326Z,11.41
2022-09-26T07:00:11.305Z,11.40
2022-09-26T07:01:11.527Z,11.40
2022-09-26T07:02:11.450Z,11.36
2022-09-26T07:03:11.287Z,11.33
2022-09-26T07:04:11.252Z,11.33
2022-09-26T07:05:11.253Z,11.33
2022-09-26T07:06:11.232Z,11.33
2022-09-26T07:07:11.243Z,11.35
2022-09-26T07:08:11.200Z,11.30
2022-09-26T07:09:12.437Z,11.27
2022-09-26T07:10:11.167Z,11.26
2022-09-26T07:11:32.821Z,11.26
2022-09-26T07:12:15.498Z,11.25
2022-09-26T07:13:11.147Z,11.25
2022-09-26T07:14:11.124Z,11.26
2022-09-26T07:15:11.122Z,11.25
2022-09-26T07:16:11.159Z,11.25
2022-09-26T07:17:11.092Z,11.25
2022-09-26T07:18:11.080Z,11.27
2022-09-26T07:19:11.204Z,11.29
2022-09-26T07:20:11.034Z,11.30
2022-09-26T07:21:11.033Z,11.33
2022-09-26T07:22:11.011Z,11.35
2022-09-26T07:23:11.020Z,11.37
2022-09-26T07:24:10.987Z,11.40
2022-09-26T07:25:10.985Z,11.43
2022-09-26T07:26:10.963Z,11.41
2022-09-26T07:27:10.969Z,11.44
2022-09-26T07:28:10.944Z,11.44
2022-09-26T07:29:10.913Z,11.45
2022-09-26T07:30:10.903Z,11.45
2022-09-26T07:31:10.943Z,11.47
2022-09-26T07:32:10.868Z,11.47
2022-09-26T07:33:10.866Z,11.50
2022-09-26T07:34:14.590Z,11.50
2022-09-26T07:35:10.847Z,11.50
2022-09-26T07:36:10.823Z,11.48
2022-09-26T07:37:10.808Z,11.51
2022-09-26T07:38:10.824Z,11.50
2022-09-26T07:39:10.784Z,11.50
2022-09-26T07:40:10.843Z,11.47
2022-09-26T07:41:10.764Z,11.45
2022-09-26T07:42:10.763Z,11.41
2022-09-26T07:43:19.795Z,11.43
2022-09-26T07:45:27.881Z,11.37
2022-09-26T07:46:10.812Z,11.37
2022-09-26T07:47:10.673Z,11.37
2022-09-26T07:48:10.660Z,11.36
2022-09-26T07:49:10.704Z,11.35
2022-09-26T07:50:10.630Z,11.32
2022-09-26T07:51:10.622Z,11.27
2022-09-26T07:52:10.624Z,11.27
2022-09-26T07:53:10.592Z,11.30
2022-09-26T07:54:10.583Z,11.30
2022-09-26T07:55:10.567Z,11.32
2022-09-26T07:56:10.596Z,11.33
2022-09-26T07:57:10.575Z,11.30
2022-09-26T07:58:10.527Z,11.32
2022-09-26T07:59:10.525Z,11.30
2022-09-26T08:00:10.500Z,11.32
2022-09-26T08:01:10.504Z,11.35
2022-09-26T08:02:10.689Z,11.35
2022-09-26T08:03:10.541Z,11.36
2022-09-26T08:04:10.450Z,11.36
2022-09-26T08:05:10.438Z,11.37
2022-09-26T08:06:10.463Z,11.41
2022-09-26T08:07:10.419Z,11.43
2022-09-26T08:08:10.388Z,11.45
2022-09-26T08:09:10.385Z,11.45
2022-09-26T08:10:10.361Z,11.44
2022-09-26T08:11:10.389Z,11.45
2022-09-26T08:12:10.335Z,11.47
2022-09-26T08:13:10.327Z,11.51
2022-09-26T08:14:10.316Z,11.52
2022-09-26T08:15:10.320Z,11.52
2022-09-26T08:16:10.333Z,11.54
2022-09-26T08:17:14.052Z,11.55
2022-09-26T08:18:10.262Z,11.60
2022-09-26T08:19:10.271Z,11.62
2022-09-26T08:20:10.233Z,11.60
2022-09-26T08:21:10.264Z,11.62
2022-09-26T08:22:10.202Z,11.62
2022-09-26T08:23:10.231Z,11.62
2022-09-26T08:24:10.248Z,11.62
2022-09-26T08:25:10.168Z,11.65
2022-09-26T08:26:10.182Z,11.63
2022-09-26T08:27:10.139Z,11.65
2022-09-26T08:28:10.125Z,11.62
2022-09-26T08:29:10.136Z,11.63
2022-09-26T08:30:10.100Z,11.62
2022-09-26T08:31:10.172Z,11.65
2022-09-26T08:32:10.068Z,11.66
2022-09-26T08:33:10.062Z,11.66
2022-09-26T08:34:10.077Z,11.69
2022-09-26T08:35:10.061Z,11.69
2022-09-26T08:36:10.029Z,11.70
2022-09-26T08:37:10.023Z,11.73
2022-09-26T08:38:09.988Z,11.73
2022-09-26T08:39:10.083Z,11.75
2022-09-26T08:40:09.980Z,11.77
2022-09-26T08:41:09.952Z,11.77
2022-09-26T08:42:09.937Z,11.80
2022-09-26T08:43:09.955Z,11.81
2022-09-26T08:44:09.970Z,11.83
2022-09-26T08:45:09.904Z,11.84
2022-09-26T08:46:09.993Z,11.86
2022-09-26T08:47:09.875Z,11.86
2022-09-26T08:48:09.854Z,11.86
2022-09-26T08:49:09.851Z,11.86
2022-09-26T08:50:09.885Z,11.86
2022-09-26T08:51:09.813Z,11.84
2022-09-26T08:52:09.839Z,11.83
2022-09-26T08:53:09.784Z,11.83
2022-09-26T08:54:09.902Z,11.84
2022-09-26T08:55:09.768Z,11.83
2022-09-26T08:56:09.774Z,11.83
2022-09-26T08:57:09.775Z,11.83
2022-09-26T08:58:09.752Z,11.83
2022-09-26T08:59:09.714Z,11.84
2022-09-26T09:00:09.730Z,11.86
2022-09-26T09:01:09.685Z,11.86
2022-09-26T09:02:09.835Z,11.88
2022-09-26T09:03:09.714Z,11.90
2022-09-26T09:04:09.706Z,11.91
2022-09-26T09:05:09.657Z,11.91
2022-09-26T09:06:09.637Z,11.99
2022-09-26T09:07:09.630Z,12.07
2022-09-26T09:08:09.586Z,12.12
2022-09-26T09:09:09.569Z,12.13
2022-09-26T09:10:09.586Z,12.20
2022-09-26T09:11:09.539Z,12.21
2022-09-26T09:12:09.533Z,12.27
2022-09-26T09:13:09.514Z,12.29
2022-09-26T09:14:09.590Z,12.45
2022-09-26T09:15:24.774Z,12.65
2022-09-26T09:16:09.595Z,12.95
2022-09-26T09:17:09.486Z,13.27
2022-09-26T09:18:13.386Z,13.54
2022-09-26T09:19:09.445Z,13.78
2022-09-26T09:20:09.422Z,13.95
2022-09-26T09:21:09.418Z,14.08
2022-09-26T09:22:09.403Z,14.29
2022-09-26T09:23:09.400Z,14.40
2022-09-26T09:24:09.500Z,14.59
2022-09-26T09:25:09.353Z,14.69
2022-09-26T09:28:09.350Z,15.09
2022-09-26T09:29:10.719Z,15.21
2022-09-26T09:30:17.469Z,15.39
2022-09-26T09:31:09.343Z,15.46
2022-09-26T09:32:09.287Z,15.64
2022-09-26T09:33:09.281Z,15.86
2022-09-26T09:34:09.378Z,16.08
2022-09-26T09:35:09.258Z,16.33
2022-09-26T09:36:09.246Z,16.28
2022-09-26T09:37:09.197Z,16.28
2022-09-26T09:38:09.222Z,16.21
2022-09-26T09:39:09.168Z,16.20
2022-09-26T09:40:09.160Z,16.13
2022-09-26T09:41:09.167Z,16.09
2022-09-26T09:42:09.132Z,16.04
2022-09-26T09:43:09.119Z,16.04
2022-09-26T09:44:09.180Z,16.01
2022-09-26T09:45:09.110Z,15.94
2022-09-26T09:46:09.138Z,15.72
2022-09-26T09:47:09.062Z,15.55
2022-09-26T09:48:09.056Z,15.44
2022-09-26T09:49:09.062Z,15.42
2022-09-26T09:50:09.030Z,15.39
2022-09-26T09:51:09.034Z,15.47
2022-09-26T09:52:09.026Z,15.49
2022-09-26T09:53:08.986Z,15.47
2022-09-26T09:54:09.061Z,15.42
2022-09-26T09:55:08.950Z,15.39
2022-09-26T09:56:09.016Z,15.46
2022-09-26T09:57:08.937Z,15.59
2022-09-26T09:58:08.914Z,15.59
2022-09-26T09:59:08.902Z,15.64
2022-09-26T10:00:08.938Z,15.67
2022-09-26T10:01:08.873Z,15.64
2022-09-26T10:02:08.863Z,15.75
2022-09-26T10:03:09.005Z,15.79
2022-09-26T10:04:08.877Z,15.82
2022-09-26T10:05:08.819Z,15.79
2022-09-26T10:06:13.478Z,15.77
2022-09-26T10:07:08.854Z,15.80
2022-09-26T10:08:08.780Z,15.97
2022-09-26T10:09:38.164Z,16.01
2022-09-26T10:10:08.762Z,16.15
2022-09-26T10:11:08.735Z,16.24
2022-09-26T10:12:08.725Z,16.35
2022-09-26T10:13:08.744Z,16.51
2022-09-26T10:14:08.700Z,16.74
2022-09-26T10:15:08.683Z,16.91
2022-09-26T10:16:08.711Z,17.11
2022-09-26T10:17:08.683Z,17.33
2022-09-26T10:18:26.119Z,17.45
2022-09-26T10:19:08.635Z,17.54
2022-09-26T10:20:08.651Z,17.64
2022-09-26T10:21:08.617Z,17.70
2022-09-26T10:22:08.626Z,17.72
2022-09-26T10:23:08.579Z,17.71
2022-09-26T10:24:08.679Z,17.89
2022-09-26T10:25:08.650Z,17.90
2022-09-26T10:26:08.551Z,17.86
2022-09-26T10:27:08.557Z,17.97
2022-09-26T10:28:08.523Z,18.18
2022-09-26T10:29:08.503Z,18.47
2022-09-26T10:30:08.493Z,18.80
2022-09-26T10:31:08.620Z,18.95
2022-09-26T10:32:08.488Z,19.02
2022-09-26T10:33:08.469Z,18.96
2022-09-26T10:34:08.585Z,18.89
2022-09-26T10:35:08.429Z,18.90
2022-09-26T10:36:08.410Z,19.00
2022-09-26T10:37:08.415Z,19.11
2022-09-26T10:38:08.383Z,19.15
2022-09-26T10:39:08.388Z,19.24
2022-09-26T10:40:08.363Z,19.51
2022-09-26T10:41:08.521Z,19.55
2022-09-26T10:42:08.366Z,19.66
2022-09-26T10:43:08.321Z,19.91
2022-09-26T10:44:08.309Z,20.11
2022-09-26T10:45:08.286Z,20.29
2022-09-26T10:46:08.375Z,20.10
2022-09-26T10:47:08.266Z,19.91
2022-09-26T10:48:08.243Z,19.76
2022-09-26T10:49:08.252Z,19.63
2022-09-26T10:50:08.222Z,19.48
2022-09-26T10:51:08.236Z,19.29
2022-09-26T10:52:08.346Z,19.19
2022-09-26T10:53:08.186Z,19.09
2022-09-26T10:54:08.186Z,19.30
2022-09-26T10:55:08.160Z,19.66
2022-09-26T10:56:08.170Z,19.49
2022-09-26T10:57:08.129Z,19.37
2022-09-26T10:58:13.534Z,19.27
2022-09-26T10:59:08.114Z,19.19
2022-09-26T11:00:08.093Z,19.15
2022-09-26T11:01:08.100Z,19.08
2022-09-26T11:02:08.165Z,18.93
2022-09-26T11:03:08.129Z,18.80
2022-09-26T11:04:08.230Z,18.74
2022-09-26T11:05:08.040Z,18.65
2022-09-26T11:06:08.014Z,18.60
2022-09-26T11:07:08.002Z,18.49
2022-09-26T11:08:08.007Z,18.56
2022-09-26T11:09:07.974Z,18.74
2022-09-26T11:10:07.983Z,18.63
2022-09-26T11:11:07.945Z,18.58
2022-09-26T11:12:07.935Z,18.53
2022-09-26T11:13:07.938Z,18.50
2022-09-26T11:14:07.906Z,18.38
2022-09-26T11:15:07.923Z,18.34
2022-09-26T11:16:07.944Z,18.26
2022-09-26T11:17:07.867Z,18.23
2022-09-26T11:18:07.857Z,18.13
2022-09-26T11:19:07.875Z,18.04
2022-09-26T11:20:07.942Z,18.00
2022-09-26T11:21:23.118Z,17.95
2022-09-26T11:22:08.488Z,17.92
2022-09-26T11:23:07.784Z,17.89
2022-09-26T11:24:28.772Z,17.83
2022-09-26T11:25:07.772Z,17.78
2022-09-26T11:26:28.790Z,17.76
2022-09-26T11:28:16.432Z,17.71
2022-09-26T11:29:38.394Z,17.64
2022-09-26T11:31:26.165Z,17.54
2022-09-26T11:33:36.103Z,17.44
2022-09-26T11:34:58.069Z,17.41
2022-09-26T11:35:57.707Z,17.38
2022-09-26T11:36:36.684Z,17.34
2022-09-26T11:37:36.686Z,17.34
2022-09-26T11:38:36.648Z,17.30
2022-09-26T11:39:36.641Z,17.29
2022-09-26T11:40:36.686Z,17.26
2022-09-26T11:41:36.808Z,17.22
2022-09-26T11:42:36.643Z,17.16
2022-09-26T11:43:36.581Z,17.12
2022-09-26T11:44:36.592Z,17.11
2022-09-26T11:45:40.862Z,17.04
2022-09-26T11:46:36.654Z,17.02
2022-09-26T11:47:36.551Z,16.99
2022-09-26T11:48:36.544Z,16.86
2022-09-26T11:49:36.506Z,16.81
2022-09-26T11:50:36.492Z,16.76
2022-09-26T11:51:36.491Z,16.76
2022-09-26T11:52:36.486Z,16.74
2022-09-26T11:53:36.452Z,16.71
2022-09-26T11:54:36.446Z,16.66
2022-09-26T11:55:36.447Z,16.64
2022-09-26T11:56:36.425Z,16.60
2022-09-26T11:57:36.421Z,16.57
2022-09-26T11:58:36.381Z,16.56
2022-09-26T11:59:36.378Z,16.54
2022-09-26T12:00:36.388Z,16.53
2022-09-26T12:01:36.346Z,16.49
2022-09-26T12:02:36.422Z,16.46
2022-09-26T12:03:36.513Z,16.42
2022-09-26T12:04:36.304Z,16.42
2022-09-26T12:05:36.306Z,16.41
2022-09-26T12:06:36.283Z,16.36
2022-09-26T12:07:36.253Z,16.36
2022-09-26T12:08:36.265Z,16.38
2022-09-26T12:09:36.262Z,16.39
2022-09-26T12:10:36.220Z,16.47
2022-09-26T12:11:36.240Z,16.49
2022-09-26T12:12:40.441Z,16.56
2022-09-26T12:13:36.185Z,16.61
2022-09-26T12:14:36.242Z,16.66
2022-09-26T12:15:36.211Z,16.71
2022-09-26T12:16:36.168Z,16.71
2022-09-26T12:17:36.198Z,16.74
2022-09-26T12:18:36.140Z,16.74
2022-09-26T12:19:36.121Z,16.74
2022-09-26T12:20:36.086Z,16.75
2022-09-26T12:21:36.097Z,16.75
2022-09-26T12:22:36.105Z,16.75
2022-09-26T12:23:36.076Z,16.71
2022-09-26T12:24:36.031Z,16.66
2022-09-26T12:25:36.021Z,16.60
2022-09-26T12:26:36.129Z,16.54
2022-09-26T12:27:36.006Z,16.53
2022-09-26T12:28:36.060Z,16.49
2022-09-26T12:29:35.979Z,16.50
2022-09-26T12:30:35.950Z,16.46
2022-09-26T12:31:35.968Z,16.38
2022-09-26T12:32:35.926Z,16.31
2022-09-26T12:33:35.909Z,16.26
2022-09-26T12:34:35.920Z,16.26
2022-09-26T12:35:35.884Z,16.26
2022-09-26T12:36:35.867Z,16.26
2022-09-26T12:37:35.911Z,16.28
2022-09-26T12:38:35.840Z,16.29
2022-09-26T12:39:35.835Z,16.31
2022-09-26T12:40:35.922Z,16.33
2022-09-26T12:41:35.817Z,16.35
2022-09-26T12:42:35.826Z,16.36
2022-09-26T12:43:35.775Z,16.35
2022-09-26T12:44:35.846Z,16.32
2022-09-26T12:45:35.747Z,16.24
2022-09-26T12:46:35.764Z,16.21
2022-09-26T12:47:35.726Z,16.17
2022-09-26T12:48:35.750Z,16.16
2022-09-26T12:49:35.690Z,16.10
2022-09-26T12:50:35.693Z,16.09
2022-09-26T12:51:35.722Z,16.10
2022-09-26T12:52:35.674Z,16.10
2022-09-26T12:53:35.633Z,16.09
2022-09-26T12:54:35.660Z,16.01
2022-09-26T12:55:35.673Z,15.95
2022-09-26T12:56:36.022Z,15.91
2022-09-26T12:57:35.599Z,15.83
2022-09-26T12:58:35.568Z,15.77
2022-09-26T12:59:38.748Z,15.77
2022-09-26T13:00:35.544Z,15.76
2022-09-26T13:01:35.575Z,15.79
2022-09-26T13:02:35.568Z,15.83